Time;durP1;ratioP1;P1;durP2;ratioP2;P2;SDS_P1;SDS_P2;PMS_P1;PMS_P2;Temp;Humidity;BMP_temperature;BMP_pressure;BME280_temperature;BME280_humidity;BME280_pressure;Samples;Min_cycle;Max_cycle;Signal;HPM_P1;HPM_P2
2021/12/31 00:01:14;;;;;;;11.52;2.53;;;;;;;;;;5089219;28;20127;-62
2021/12/31 00:03:40;;;;;;;10.40;2.38;;;;;;;;;;5089956;28;20047;-62
2021/12/31 00:06:06;;;;;;;11.60;2.42;;;;;;;;;;5089701;28;20062;-62
2021/12/31 00:08:32;;;;;;;10.43;2.03;;;;;;;;;;5089865;28;20040;-62
2021/12/31 00:10:59;;;;;;;10.98;2.28;;;;;;;;;;5089725;28;20192;-61
2021/12/31 00:13:26;;;;;;;11.68;2.65;;;;;;;;;;5089845;28;20051;-61
2021/12/31 00:15:52;;;;;;;7.45;1.90;;;;;;;;;;5089483;28;20131;-62
2021/12/31 00:18:18;;;;;;;6.75;2.28;;;;;;;;;;5089489;28;20032;-61
2021/12/31 00:20:44;;;;;;;12.18;2.17;;;;;;;;;;5089996;28;20062;-62
2021/12/31 00:23:13;;;;;;;11.25;1.92;;;;;;;;;;5089781;28;20051;-63
2021/12/31 00:25:40;;;;;;;9.52;2.38;;;;;;;;;;5089669;28;20509;-62
2021/12/31 00:28:07;;;;;;;13.68;2.60;;;;;;;;;;5089672;28;20077;-62
2021/12/31 00:30:33;;;;;;;9.15;1.85;;;;;;;;;;5090100;28;20047;-62
2021/12/31 00:33:01;;;;;;;11.02;2.00;;;;;;;;;;5089581;28;20529;-65
2021/12/31 00:35:28;;;;;;;11.20;1.90;;;;;;;;;;5089526;28;20508;-61
2021/12/31 00:37:54;;;;;;;8.05;1.92;;;;;;;;;;5089643;28;20039;-63
2021/12/31 00:40:20;;;;;;;13.98;2.28;;;;;;;;;;5089578;28;20036;-62
2021/12/31 00:42:46;;;;;;;8.55;1.92;;;;;;;;;;5089626;28;20075;-62
2021/12/31 00:45:15;;;;;;;8.63;2.03;;;12.90;99.90;;;;;;5089176;28;20036;-61
2021/12/31 00:47:41;;;;;;;14.77;2.30;;;;;;;;;;5089420;28;20063;-62
2021/12/31 00:50:07;;;;;;;10.80;2.40;;;;;;;;;;5088541;28;20042;-61
2021/12/31 00:52:34;;;;;;;10.55;2.53;;;;;;;;;;5087868;28;20048;-64
2021/12/31 00:55:00;;;;;;;7.13;2.00;;;;;;;;;;5089270;28;20493;-60
2021/12/31 00:57:26;;;;;;;12.77;2.58;;;;;;;;;;5093286;28;20040;-63
2021/12/31 00:59:52;;;;;;;11.88;2.60;;;;;;;;;;5093025;28;20101;-62
2021/12/31 01:02:21;;;;;;;13.48;2.50;;;;;;;;;;5092788;28;20043;-63
2021/12/31 01:04:47;;;;;;;11.15;2.17;;;;;;;;;;5093484;28;20516;-62
2021/12/31 01:07:13;;;;;;;13.90;2.30;;;;;;;;;;5092935;28;20048;-60
2021/12/31 01:09:39;;;;;;;12.98;2.20;;;;;;;;;;5092756;28;20052;-62
2021/12/31 01:12:07;;;;;;;8.45;2.20;;;;;;;;;;5092670;28;20048;-62
2021/12/31 01:14:37;;;;;;;9.60;1.98;;;;;;;;;;5093193;28;20423;-62
2021/12/31 01:17:07;;;;;;;12.20;2.20;;;13.10;99.90;;;;;;5092885;28;20040;-61
2021/12/31 01:19:46;;;;;;;9.00;2.38;;;;;;;;;;5092769;28;20133;-60
2021/12/31 01:22:20;;;;;;;8.93;2.10;;;;;;;;;;5092905;28;20573;-62
2021/12/31 01:24:46;;;;;;;9.25;2.45;;;;;;;;;;5092443;28;20047;-62
2021/12/31 01:27:13;;;;;;;10.00;2.63;;;;;;;;;;5092639;28;20054;-61
2021/12/31 01:29:39;;;;;;;8.75;1.85;;;;;;;;;;5092563;28;20138;-61
2021/12/31 01:32:05;;;;;;;9.77;2.15;;;;;;;;;;5092925;28;20610;-62
2021/12/31 01:34:31;;;;;;;10.77;1.83;;;;;;;;;;5092781;28;20501;-61
2021/12/31 01:36:59;;;;;;;7.97;2.05;;;;;;;;;;5092303;28;20036;-61
2021/12/31 01:39:25;;;;;;;8.43;2.50;;;;;;;;;;5092472;28;20103;-62
2021/12/31 01:41:51;;;;;;;9.50;1.83;;;;;;;;;;5092278;28;20040;-62
2021/12/31 01:44:17;;;;;;;8.32;2.05;;;;;;;;;;5092762;28;20590;-60
2021/12/31 01:46:58;;;;;;;8.15;1.73;;;12.70;99.90;;;;;;5091988;28;20074;-62
2021/12/31 01:49:32;;;;;;;9.25;2.20;;;;;;;;;;5092480;28;20543;-61
2021/12/31 01:51:58;;;;;;;12.55;2.70;;;;;;;;;;5092657;28;20055;-60
2021/12/31 01:54:24;;;;;;;11.02;3.13;;;;;;;;;;5092417;28;20367;-62
2021/12/31 01:56:52;;;;;;;8.43;2.28;;;;;;;;;;5090524;28;20051;-61
2021/12/31 01:59:18;;;;;;;11.27;2.20;;;;;;;;;;5090512;28;20042;-60
2021/12/31 02:01:45;;;;;;;9.25;2.05;;;;;;;;;;5091621;28;20039;-62
2021/12/31 02:04:11;;;;;;;8.32;1.90;;;;;;;;;;5091796;28;20039;-60
2021/12/31 02:06:37;;;;;;;8.23;2.13;;;;;;;;;;5091414;28;20139;-62
2021/12/31 02:09:05;;;;;;;12.18;2.25;;;12.80;99.90;;;;;;5090787;28;20039;-62
2021/12/31 02:11:31;;;;;;;9.23;2.38;;;;;;;;;;5091887;28;20113;-60
2021/12/31 02:13:58;;;;;;;12.35;2.63;;;;;;;;;;5090462;28;20051;-61
2021/12/31 02:16:24;;;;;;;11.38;2.72;;;;;;;;;;5091342;28;20036;-62
2021/12/31 02:18:50;;;;;;;7.70;2.55;;;;;;;;;;5091569;28;20097;-61
2021/12/31 02:21:17;;;;;;;10.70;2.85;;;;;;;;;;5091026;28;20048;-63
2021/12/31 02:23:46;;;;;;;12.30;3.00;;;;;;;;;;5091834;28;20549;-63
2021/12/31 02:26:12;;;;;;;9.50;2.63;;;;;;;;;;5091480;28;20040;-62
2021/12/31 02:28:39;;;;;;;8.02;2.78;;;;;;;;;;5091759;28;20028;-62
2021/12/31 02:31:05;;;;;;;7.45;3.25;;;;;;;;;;5091170;28;20093;-61
2021/12/31 02:33:31;;;;;;;10.93;2.80;;;;;;;;;;5090536;28;20090;-60
2021/12/31 02:35:58;;;;;;;6.88;3.03;;;;;;;;;;5091747;28;20539;-62
2021/12/31 02:38:24;;;;;;;7.07;3.00;;;;;;;;;;5091377;28;20044;-61
2021/12/31 02:40:51;;;;;;;9.32;3.40;;;;;;;;;;5090544;28;20490;-62
2021/12/31 02:43:17;;;;;;;10.68;3.63;;;;;;;;;;5089761;28;20035;-63
2021/12/31 02:45:43;;;;;;;6.45;3.55;;;;;;;;;;5091162;28;20540;-62
2021/12/31 02:48:09;;;;;;;8.85;3.70;;;;;;;;;;5089453;28;20115;-62
2021/12/31 02:50:39;;;;;;;8.82;3.45;;;;;;;;;;5091114;28;20044;-61
2021/12/31 02:53:06;;;;;;;6.75;3.63;;;;;;;;;;5089641;28;20048;-61
2021/12/31 02:55:33;;;;;;;7.72;3.92;;;;;;;;;;5091078;28;20051;-60
2021/12/31 02:58:00;;;;;;;8.65;3.95;;;;;;;;;;5090973;28;20040;-61
2021/12/31 03:00:26;;;;;;;7.68;4.30;;;;;;;;;;5090354;28;20047;-63
2021/12/31 03:02:53;;;;;;;10.85;4.28;;;;;;;;;;5090768;28;20082;-62
2021/12/31 03:05:19;;;;;;;9.77;4.47;;;;;;;;;;5089132;28;20035;-60
2021/12/31 03:07:47;;;;;;;5.97;3.92;;;;;;;;;;5090940;28;20070;-61
2021/12/31 03:10:14;;;;;;;7.78;4.30;;;;;;;;;;5090593;28;20543;-62
2021/12/31 03:12:41;;;;;;;12.48;4.00;;;;;;;;;;5089897;28;20364;-61
2021/12/31 03:15:11;;;;;;;5.25;3.70;;;;;;;;;;5089384;28;20040;-61
2021/12/31 03:17:38;;;;;;;9.93;4.30;;;;;;;;;;5090293;28;20036;-60
2021/12/31 03:20:12;;;;;;;7.72;3.70;;;;;;;;;;5090017;28;20207;-62
2021/12/31 03:22:39;;;;;;;8.90;3.65;;;13.00;99.90;;;;;;5090058;28;20574;-61
2021/12/31 03:25:06;;;;;;;9.70;3.60;;;;;;;;;;5090211;28;20223;-61
2021/12/31 03:27:32;;;;;;;8.40;4.28;;;;;;;;;;5090213;28;20040;-61
2021/12/31 03:29:58;;;;;;;8.52;3.92;;;;;;;;;;5090209;28;20053;-64
2021/12/31 03:32:25;;;;;;;7.43;3.67;;;;;;;;;;5089742;28;20047;-60
2021/12/31 03:34:51;;;;;;;7.75;3.28;;;;;;;;;;5088847;28;20421;-60
2021/12/31 03:37:17;;;;;;;6.78;4.00;;;;;;;;;;5090345;28;20085;-61
2021/12/31 03:39:43;;;;;;;7.22;3.78;;;;;;;;;;5090259;28;20521;-61
2021/12/31 03:42:14;;;;;;;9.38;3.50;;;;;;;;;;5089826;28;20132;-62
2021/12/31 03:44:41;;;;;;;7.07;3.50;;;;;;;;;;5090059;28;20126;-61
2021/12/31 03:47:07;;;;;;;7.57;3.72;;;;;;;;;;5090470;28;20518;-63
2021/12/31 03:49:32;;;;;;;7.10;3.70;;;;;;;;;;5089932;28;20073;-62
2021/12/31 03:51:58;;;;;;;7.20;3.42;;;;;;;;;;5089896;28;20036;-61
2021/12/31 03:54:24;;;;;;;10.73;3.70;;;;;;;;;;5088263;28;20509;-62
2021/12/31 03:56:50;;;;;;;6.72;3.70;;;;;;;;;;5090210;28;20071;-62
2021/12/31 03:59:16;;;;;;;6.13;3.90;;;;;;;;;;5090219;28;20080;-61
2021/12/31 04:01:42;;;;;;;12.10;4.32;;;;;;;;;;5089955;28;20036;-62
2021/12/31 04:04:09;;;;;;;8.52;4.47;;;;;;;;;;5090068;28;20039;-61
2021/12/31 04:06:35;;;;;;;8.27;4.32;;;;;;;;;;5090061;28;20050;-61
2021/12/31 04:09:02;;;;;;;5.90;3.90;;;;;;;;;;5090006;28;20126;-60
2021/12/31 04:11:28;;;;;;;7.20;3.92;;;;;;;;;;5089722;28;20465;-60
2021/12/31 04:13:54;;;;;;;8.00;4.05;;;;;;;;;;5089393;28;20040;-62
2021/12/31 04:16:20;;;;;;;10.43;4.45;;;;;;;;;;5071574;28;20390;-61
2021/12/31 04:18:46;;;;;;;6.75;4.13;;;;;;;;;;5089786;28;20121;-63
2021/12/31 04:21:15;;;;;;;8.45;4.18;;;;;;;;;;5089723;28;20101;-63
2021/12/31 04:26:37;;;;;;;9.80;4.00;;;;;;;;;;5010807;28;20649;-60
2021/12/31 04:29:03;;;;;;;7.80;3.55;;;;;;;;;;5008402;28;20030;-62
2021/12/31 04:31:29;;;;;;;9.27;3.58;;;;;;;;;;5012612;28;20045;-64
2021/12/31 04:33:55;;;;;;;9.50;3.75;;;;;;;;;;5011439;28;20042;-61
2021/12/31 04:36:21;;;;;;;8.23;3.78;;;;;;;;;;4994601;28;20068;-61
2021/12/31 04:38:47;;;;;;;7.03;3.38;;;;;;;;;;5012923;28;20658;-62
2021/12/31 04:41:13;;;;;;;9.68;3.40;;;;;;;;;;4997414;28;20126;-62
2021/12/31 04:43:39;;;;;;;7.65;3.38;;;;;;;;;;5012632;28;20056;-60
2021/12/31 04:46:05;;;;;;;6.88;3.20;;;;;;;;;;5010383;28;20042;-62
2021/12/31 04:48:31;;;;;;;6.70;2.60;;;;;;;;;;5012773;28;20050;-61
2021/12/31 04:50:57;;;;;;;5.90;2.58;;;;;;;;;;5011017;28;20061;-62
2021/12/31 04:53:23;;;;;;;7.30;3.08;;;;;;;;;;4996962;28;20116;-62
2021/12/31 04:55:50;;;;;;;7.32;2.33;;;;;;;;;;5010408;28;20038;-61
2021/12/31 04:58:16;;;;;;;6.20;2.42;;;;;;;;;;5011749;28;20038;-60
2021/12/31 05:00:42;;;;;;;5.25;2.40;;;;;;;;;;5011319;28;20052;-62
2021/12/31 05:03:09;;;;;;;5.40;2.25;;;13.10;99.90;;;;;;5056288;28;20056;-60
2021/12/31 05:05:36;;;;;;;5.25;2.25;;;;;;;;;;5093108;28;20051;-62
2021/12/31 05:08:02;;;;;;;5.65;2.20;;;;;;;;;;5092805;28;20397;-62
2021/12/31 05:10:31;;;;;;;10.45;2.40;;;;;;;;;;5092822;28;20032;-62
2021/12/31 05:12:57;;;;;;;8.48;2.40;;;;;;;;;;5092879;28;20039;-61
2021/12/31 05:15:27;;;;;;;6.80;2.35;;;;;;;;;;5092383;28;20051;-62
2021/12/31 05:17:53;;;;;;;9.02;2.17;;;;;;;;;;5092508;28;20401;-63
2021/12/31 05:20:19;;;;;;;4.70;1.90;;;;;;;;;;5092600;28;20115;-62
2021/12/31 05:22:46;;;;;;;5.13;2.20;;;;;;;;;;5092601;28;20120;-63
2021/12/31 05:25:12;;;;;;;5.22;2.38;;;;;;;;;;5091215;28;20084;-62
2021/12/31 05:27:38;;;;;;;4.28;1.77;;;;;;;;;;5092533;28;20035;-62
2021/12/31 05:30:04;;;;;;;5.25;2.10;;;;;;;;;;5092455;28;20040;-61
2021/12/31 05:32:31;;;;;;;6.00;2.20;;;;;;;;;;5092670;28;20554;-61
2021/12/31 05:34:57;;;;;;;5.43;1.98;;;;;;;;;;5092430;28;20036;-60
2021/12/31 05:37:23;;;;;;;5.30;2.05;;;;;;;;;;5092862;28;20424;-62
2021/12/31 05:39:49;;;;;;;2.83;1.70;;;;;;;;;;5091993;28;20074;-61
2021/12/31 05:42:15;;;;;;;4.05;1.70;;;;;;;;;;5091867;28;20040;-60
2021/12/31 05:44:41;;;;;;;7.20;2.17;;;;;;;;;;5092161;28;20043;-61
2021/12/31 05:47:07;;;;;;;5.82;2.10;;;;;;;;;;5092485;28;20040;-61
2021/12/31 05:49:33;;;;;;;5.47;1.60;;;;;;;;;;5091630;28;20082;-61
2021/12/31 05:51:59;;;;;;;4.43;1.73;;;;;;;;;;5091381;28;20048;-62
2021/12/31 05:54:25;;;;;;;3.53;1.50;;;;;;;;;;5091844;28;20028;-62
2021/12/31 05:56:51;;;;;;;4.45;1.50;;;;;;;;;;5092280;28;20501;-60
2021/12/31 05:59:18;;;;;;;2.92;1.40;;;;;;;;;;5090621;28;20036;-60
2021/12/31 06:01:44;;;;;;;3.53;1.60;;;;;;;;;;5091494;28;20416;-63
2021/12/31 06:04:10;;;;;;;4.07;1.80;;;;;;;;;;5092043;28;20394;-61
2021/12/31 06:06:36;;;;;;;4.80;1.67;;;;;;;;;;5090879;28;20736;-61
2021/12/31 06:09:03;;;;;;;3.13;1.80;;;;;;;;;;5087882;28;20035;-61
2021/12/31 06:11:29;;;;;;;2.63;1.38;;;;;;;;;;5091347;28;20501;-61
2021/12/31 06:14:01;;;;;;;3.70;1.63;;;;;;;;;;5091741;28;20068;-62
2021/12/31 06:16:28;;;;;;;4.80;1.60;;;12.70;99.90;;;;;;5091579;28;20521;-62
2021/12/31 06:18:55;;;;;;;4.03;1.92;;;;;;;;;;5091472;28;20120;-64
2021/12/31 06:21:21;;;;;;;7.00;1.98;;;;;;;;;;5089961;28;20055;-61
2021/12/31 06:23:47;;;;;;;4.97;1.70;;;;;;;;;;5089400;28;20044;-64
2021/12/31 06:26:14;;;;;;;6.20;1.70;;;;;;;;;;5091795;28;20101;-64
2021/12/31 06:28:40;;;;;;;4.80;1.58;;;;;;;;;;5091369;28;20050;-61
2021/12/31 06:31:06;;;;;;;5.07;1.88;;;;;;;;;;5091471;28;20118;-64
2021/12/31 06:33:32;;;;;;;5.72;1.80;;;;;;;;;;5091001;28;20566;-62
2021/12/31 06:35:58;;;;;;;4.32;1.70;;;;;;;;;;5090018;28;20036;-62
2021/12/31 06:38:24;;;;;;;7.85;1.80;;;;;;;;;;5089954;28;20109;-63
2021/12/31 06:40:50;;;;;;;2.88;1.50;;;;;;;;;;5091320;28;20032;-65
2021/12/31 06:43:16;;;;;;;6.82;1.60;;;;;;;;;;5090566;28;20044;-63
2021/12/31 06:45:42;;;;;;;4.32;1.52;;;;;;;;;;5088865;28;20060;-62
2021/12/31 06:48:08;;;;;;;4.05;1.70;;;;;;;;;;5088852;28;20040;-62
2021/12/31 06:50:34;;;;;;;3.75;1.50;;;;;;;;;;5089852;28;20402;-66
2021/12/31 06:53:01;;;;;;;4.60;1.75;;;;;;;;;;5089076;28;20055;-66
2021/12/31 06:55:27;;;;;;;4.57;1.95;;;;;;;;;;5091009;28;20067;-61
2021/12/31 06:57:53;;;;;;;7.80;1.63;;;;;;;;;;5091084;28;20071;-62
2021/12/31 07:00:19;;;;;;;5.97;1.92;;;;;;;;;;5090608;28;20509;-62
2021/12/31 07:02:45;;;;;;;4.35;1.60;;;;;;;;;;5089928;28;20047;-65
2021/12/31 07:05:11;;;;;;;5.15;1.70;;;;;;;;;;5090264;28;20040;-62
2021/12/31 07:07:37;;;;;;;3.17;1.70;;;;;;;;;;5090590;28;20043;-63
2021/12/31 07:10:05;;;;;;;4.50;1.73;;;;;;;;;;5091066;28;20039;-63
2021/12/31 07:12:31;;;;;;;6.97;1.70;;;;;;;;;;5090879;28;20058;-63
2021/12/31 07:14:57;;;;;;;4.63;1.70;;;;;;;;;;5122036;27;20040;-62
2021/12/31 07:17:23;;;;;;;4.90;1.50;;;;;;;;;;5089040;28;20379;-63
2021/12/31 07:19:49;;;;;;;4.53;1.80;;;;;;;;;;5090801;28;20115;-65
2021/12/31 07:22:15;;;;;;;4.90;1.73;;;;;;;;;;5089435;28;20055;-66
2021/12/31 07:24:41;;;;;;;4.47;1.80;;;;;;;;;;5090688;28;20048;-63
2021/12/31 07:27:07;;;;;;;2.63;1.60;;;;;;;;;;5089681;28;20054;-65
2021/12/31 07:29:33;;;;;;;3.15;1.90;;;;;;;;;;5090571;28;20044;-63
2021/12/31 07:31:59;;;;;;;4.75;1.88;;;;;;;;;;5089938;28;20093;-63
2021/12/31 07:34:25;;;;;;;4.70;1.80;;;;;;;;;;5090374;28;20383;-63
2021/12/31 07:36:52;;;;;;;3.95;1.50;;;;;;;;;;5090348;28;20061;-63
2021/12/31 07:39:20;;;;;;;4.40;1.50;;;;;;;;;;5088749;28;20377;-63
2021/12/31 07:41:46;;;;;;;5.28;1.63;;;;;;;;;;5090363;28;20116;-64
2021/12/31 07:44:12;;;;;;;3.80;1.73;;;;;;;;;;5089926;28;20036;-62
2021/12/31 07:46:40;;;;;;;4.28;1.60;;;;;;;;;;5089007;28;20043;-62
2021/12/31 07:49:06;;;;;;;3.05;1.48;;;;;;;;;;5088454;28;20186;-62
2021/12/31 07:51:32;;;;;;;3.78;1.60;;;;;;;;;;5090143;28;20082;-63
2021/12/31 07:53:58;;;;;;;4.13;1.60;;;;;;;;;;5090031;28;20039;-64
2021/12/31 07:56:24;;;;;;;5.72;1.85;;;;;;;;;;5088727;28;20088;-63
2021/12/31 07:58:50;;;;;;;4.10;1.77;;;;;;;;;;5090536;28;20482;-62
2021/12/31 08:01:17;;;;;;;6.82;1.85;;;;;;;;;;5090101;28;20032;-64
2021/12/31 08:03:43;;;;;;;3.97;1.70;;;;;;;;;;5089149;28;20394;-64
2021/12/31 08:06:09;;;;;;;3.53;1.45;;;;;;;;;;5092522;28;20406;-62
2021/12/31 08:08:35;;;;;;;3.92;1.60;;;;;;;;;;5094463;28;20127;-63
2021/12/31 08:11:01;;;;;;;2.63;1.48;;;;;;;;;;5093475;28;20079;-64
2021/12/31 08:13:27;;;;;;;5.07;1.75;;;;;;;;;;5094588;28;20446;-64
2021/12/31 08:15:53;;;;;;;5.13;1.90;;;;;;;;;;5093984;28;20441;-62
2021/12/31 08:18:19;;;;;;;4.13;1.67;;;;;;;;;;5093888;28;20039;-61
2021/12/31 08:20:45;;;;;;;4.72;1.45;;;;;;;;;;5093846;28;20039;-65
2021/12/31 08:23:12;;;;;;;4.70;1.60;;;;;;;;;;5092826;28;20709;-63
2021/12/31 08:25:38;;;;;;;4.82;1.73;;;;;;;;;;5094339;28;20050;-64
2021/12/31 08:28:05;;;;;;;3.90;1.67;;;;;;;;;;5094297;28;20043;-64
2021/12/31 08:30:31;;;;;;;2.55;1.67;;;;;;;;;;5094271;28;20480;-60
2021/12/31 08:32:57;;;;;;;3.47;1.40;;;;;;;;;;5094323;28;20486;-63
2021/12/31 08:35:24;;;;;;;5.47;1.80;;;;;;;;;;5094512;28;20067;-64
2021/12/31 08:37:50;;;;;;;4.32;1.55;;;;;;;;;;5093113;28;20040;-63
2021/12/31 08:40:17;;;;;;;4.35;1.85;;;;;;;;;;5093982;28;20082;-62
2021/12/31 08:42:43;;;;;;;3.58;1.90;;;;;;;;;;5094402;28;20059;-65
2021/12/31 08:45:09;;;;;;;3.28;1.40;;;;;;;;;;5094219;28;20040;-63
2021/12/31 08:47:35;;;;;;;6.72;1.75;;;;;;;;;;5094325;28;20042;-63
2021/12/31 08:50:01;;;;;;;4.93;1.90;;;;;;;;;;5094024;28;20051;-64
2021/12/31 08:52:27;;;;;;;3.58;1.60;;;;;;;;;;5093955;28;20080;-61
2021/12/31 08:54:53;;;;;;;3.88;2.03;;;;;;;;;;5092910;28;20067;-63
2021/12/31 08:57:19;;;;;;;4.50;1.85;;;;;;;;;;5093895;28;20040;-61
2021/12/31 08:59:45;;;;;;;5.00;1.48;;;;;;;;;;5094112;28;20036;-64
2021/12/31 09:02:13;;;;;;;5.15;2.15;;;;;;;;;;5094050;28;20538;-63
2021/12/31 09:04:39;;;;;;;5.80;2.00;;;;;;;;;;5087320;28;20060;-63
2021/12/31 09:07:05;;;;;;;4.70;1.80;;;;;;;;;;5093724;28;20375;-65
2021/12/31 09:09:31;;;;;;;3.70;1.70;;;;;;;;;;5093583;28;20042;-63
2021/12/31 09:11:57;;;;;;;5.80;1.88;;;;;;;;;;5093674;28;20032;-64
2021/12/31 09:14:23;;;;;;;2.28;1.50;;;;;;;;;;5091986;28;20048;-62
2021/12/31 09:16:50;;;;;;;3.95;1.70;;;;;;;;;;5093060;28;20031;-64
2021/12/31 09:19:16;;;;;;;4.18;1.70;;;;;;;;;;5093352;28;20035;-65
2021/12/31 09:21:42;;;;;;;4.78;1.90;;;;;;;;;;5093637;28;20048;-62
2021/12/31 09:24:09;;;;;;;3.05;1.60;;;;;;;;;;5093385;28;20122;-62
2021/12/31 09:26:35;;;;;;;4.97;1.60;;;;;;;;;;5093602;28;20062;-63
2021/12/31 09:29:01;;;;;;;6.55;1.70;;;;;;;;;;5093795;28;20359;-62
2021/12/31 09:31:27;;;;;;;3.38;1.77;;;;;;;;;;5093131;28;22805;-63
2021/12/31 09:33:53;;;;;;;4.40;1.63;;;;;;;;;;5093268;28;20070;-64
2021/12/31 09:36:19;;;;;;;3.22;1.75;;;;;;;;;;5091901;28;20076;-63
2021/12/31 09:38:45;;;;;;;3.35;1.90;;;;;;;;;;5093105;28;20405;-65
2021/12/31 09:41:11;;;;;;;4.15;1.92;;;;;;;;;;5091889;28;20040;-62
2021/12/31 09:43:38;;;;;;;3.72;2.22;;;;;;;;;;5093182;28;20044;-63
2021/12/31 09:46:04;;;;;;;7.18;2.13;;;;;;;;;;5093140;28;20040;-61
2021/12/31 09:48:30;;;;;;;4.53;1.88;;;;;;;;;;5092688;28;20047;-63
2021/12/31 09:50:57;;;;;;;6.80;2.05;;;;;;;;;;5091604;28;20028;-65
2021/12/31 09:53:24;;;;;;;5.32;2.05;;;;;;;;;;5092522;28;20517;-61
2021/12/31 09:55:54;;;;;;;5.95;2.28;;;;;;;;;;5091781;28;20050;-61
2021/12/31 09:58:21;;;;;;;4.85;2.35;;;;;;;;;;5091199;28;20048;-63
2021/12/31 10:00:48;;;;;;;4.68;2.20;;;;;;;;;;5092727;28;20101;-64
2021/12/31 10:03:16;;;;;;;6.60;2.47;;;;;;;;;;5092688;28;20129;-64
2021/12/31 10:05:48;;;;;;;4.47;2.40;;;;;;;;;;5092615;28;20047;-65
2021/12/31 10:08:29;;;;;;;4.90;2.20;;;12.50;99.90;;;;;;5091401;28;20394;-63
2021/12/31 10:11:05;;;;;;;3.35;2.00;;;;;;;;;;5090644;28;20292;-63
2021/12/31 10:13:32;;;;;;;3.38;2.03;;;;;;;;;;5090861;28;20048;-62
2021/12/31 10:15:58;;;;;;;3.45;2.10;;;;;;;;;;5092421;28;20031;-61
2021/12/31 10:18:37;;;;;;;4.55;2.30;;;12.60;99.90;;;;;;5092064;28;20375;-64
2021/12/31 10:21:04;;;;;;;5.45;2.33;;;12.50;99.90;;;;;;5092451;28;20063;-64
2021/12/31 10:23:36;;;;;;;4.30;2.42;;;12.60;99.90;;;;;;5092196;28;20048;-64
2021/12/31 10:26:07;;;;;;;6.47;2.67;;;;;;;;;;5092408;28;20042;-64
2021/12/31 10:28:33;;;;;;;4.55;2.45;;;;;;;;;;5089616;28;20051;-65
2021/12/31 10:31:15;;;;;;;5.68;2.45;;;;;;;;;;5092399;28;20386;-64
2021/12/31 10:33:42;;;;;;;3.92;2.55;;;;;;;;;;5091917;28;20508;-62
2021/12/31 10:36:08;;;;;;;4.15;2.03;;;;;;;;;;5092249;28;20032;-63
2021/12/31 10:38:39;;;;;;;4.25;2.30;;;;;;;;;;5091868;28;20047;-61
2021/12/31 10:41:05;;;;;;;5.47;2.67;;;;;;;;;;5092027;28;20044;-64
2021/12/31 10:43:31;;;;;;;5.20;2.40;;;;;;;;;;5091655;28;20055;-62
2021/12/31 10:46:09;;;;;;;4.68;2.53;;;;;;;;;;5092036;28;20401;-64
2021/12/31 10:48:44;;;;;;;5.35;2.80;;;;;;;;;;5091549;28;20047;-63
2021/12/31 10:51:11;;;;;;;7.95;2.90;;;;;;;;;;5090569;28;20036;-62
2021/12/31 10:53:37;;;;;;;6.00;2.75;;;;;;;;;;5091311;28;20131;-64
2021/12/31 10:56:05;;;;;;;5.20;2.83;;;;;;;;;;5091703;28;20486;-64
2021/12/31 10:58:31;;;;;;;6.13;3.38;;;;;;;;;;5091820;28;20085;-63
2021/12/31 11:00:59;;;;;;;4.85;2.85;;;;;;;;;;5091503;28;20494;-64
2021/12/31 11:03:25;;;;;;;6.47;3.30;;;;;;;;;;5090312;28;20048;-64
2021/12/31 11:05:51;;;;;;;5.63;2.80;;;;;;;;;;5091321;28;20151;-61
2021/12/31 11:08:17;;;;;;;8.93;3.10;;;;;;;;;;5091549;28;20149;-64
2021/12/31 11:10:43;;;;;;;5.82;3.10;;;;;;;;;;5090139;28;20059;-63
2021/12/31 11:13:12;;;;;;;6.03;3.05;;;;;;;;;;5091500;28;20040;-63
2021/12/31 11:15:38;;;;;;;7.47;3.22;;;;;;;;;;5090003;28;20036;-63
2021/12/31 11:18:05;;;;;;;6.18;2.97;;;;;;;;;;5091283;28;20059;-62
2021/12/31 11:20:31;;;;;;;6.07;2.80;;;;;;;;;;5091059;28;20036;-65
2021/12/31 11:22:57;;;;;;;5.65;2.80;;;;;;;;;;5090719;28;20101;-61
2021/12/31 11:25:25;;;;;;;6.75;3.08;;;;;;;;;;5091424;28;20441;-64
2021/12/31 11:27:52;;;;;;;4.93;2.90;;;;;;;;;;5091034;28;20165;-65
2021/12/31 11:30:25;;;;;;;5.93;3.20;;;;;;;;;;5091323;28;20035;-64
2021/12/31 11:32:56;;;;;;;5.70;3.03;;;12.10;99.90;;;;;;5090983;28;20368;-62
2021/12/31 11:35:28;;;;;;;7.05;3.00;;;;;;;;;;5091516;28;20035;-64
2021/12/31 11:37:54;;;;;;;8.02;2.78;;;;;;;;;;5090955;28;20039;-63
2021/12/31 11:40:37;;;;;;;7.68;2.78;;;12.00;99.90;;;;;;5090771;28;20051;-61
2021/12/31 11:43:25;;;;;;;8.13;3.17;;;;;;;;;;5090966;28;20039;-62
2021/12/31 11:46:12;;;;;;;8.40;3.08;;;;;;;;;;5090617;28;20561;-61
2021/12/31 11:48:47;;;;;;;10.75;6.00;;;;;;;;;;5090640;28;20044;-64
2021/12/31 11:51:16;;;;;;;5.40;3.25;;;;;;;;;;5091011;28;20443;-63
2021/12/31 11:54:08;;;;;;;5.93;3.50;;;12.50;99.90;;;;;;5090554;28;20044;-64
2021/12/31 11:59:11;;;;;;;7.32;3.47;;;;;;;;;;5089020;28;20048;-62
2021/12/31 12:01:37;;;;;;;5.82;3.38;;;;;;;;;;5090762;28;20417;-63
2021/12/31 12:04:22;;;;;;;7.93;3.45;;;;;;;;;;5090393;28;20050;-63
2021/12/31 12:06:54;;;;;;;7.50;3.65;;;;;;;;;;5090419;28;20044;-63
2021/12/31 12:09:21;;;;;;;8.52;4.38;;;12.40;99.90;;;;;;5090883;28;20066;-65
2021/12/31 12:12:07;;;;;;;7.65;3.80;;;12.20;99.90;;;;;;5090425;28;20044;-63
2021/12/31 12:14:42;;;;;;;6.57;3.75;;;;;;;;;;5091093;28;20162;-62
2021/12/31 12:17:09;;;;;;;10.98;3.60;;;;;;;;;;5090317;28;20119;-62
2021/12/31 12:19:55;;;;;;;7.30;3.42;;;;;;;;;;5090507;28;20036;-62
2021/12/31 12:22:28;;;;;;;7.63;4.15;;;;;;;;;;5076801;28;20089;-63
2021/12/31 12:24:56;;;;;;;8.13;4.43;;;;;;;;;;5090417;28;20454;-60
2021/12/31 12:27:24;;;;;;;8.65;4.20;;;;;;;;;;5090604;28;20044;-62
2021/12/31 12:29:51;;;;;;;12.90;4.70;;;;;;;;;;5090616;28;20137;-62
2021/12/31 12:32:28;;;;;;;10.90;5.18;;;;;;;;;;5090435;28;20035;-62
2021/12/31 12:34:54;;;;;;;15.77;6.07;;;;;;;;;;5090535;28;20040;-62
2021/12/31 12:37:27;;;;;;;7.88;4.50;;;;;;;;;;5090529;28;20044;-64
2021/12/31 12:39:59;;;;;;;8.70;4.80;;;;;;;;;;5090290;28;20571;-61
2021/12/31 12:42:26;;;;;;;12.15;4.65;;;;;;;;;;5090574;28;20040;-63
2021/12/31 12:45:01;;;;;;;14.07;5.13;;;;;;;;;;5090516;28;20040;-61
2021/12/31 12:47:27;;;;;;;9.50;4.40;;;;;;;;;;5090243;28;20047;-64
2021/12/31 12:49:57;;;;;;;8.18;4.40;;;;;;;;;;5090347;28;20521;-63
2021/12/31 12:52:24;;;;;;;9.98;4.55;;;;;;;;;;5091272;28;20044;-63
2021/12/31 12:55:07;;;;;;;8.18;4.20;;;;;;;;;;5094335;28;20032;-65
2021/12/31 12:57:33;;;;;;;11.45;4.80;;;;;;;;;;5094251;28;20094;-62
2021/12/31 12:59:59;;;;;;;10.57;4.55;;;;;;;;;;5093933;28;20409;-63
2021/12/31 13:02:41;;;;;;;9.50;4.70;;;;;;;;;;5094058;28;20032;-63
2021/12/31 13:05:07;;;;;;;12.85;5.22;;;;;;;;;;5093422;28;20152;-60
2021/12/31 13:07:33;;;;;;;10.73;4.93;;;;;;;;;;5094025;28;20036;-60
2021/12/31 13:10:06;;;;;;;14.90;5.38;;;;;;;;;;5093980;28;20490;-63
2021/12/31 13:12:33;;;;;;;9.20;4.35;;;;;;;;;;5093676;28;20040;-63
2021/12/31 13:15:01;;;;;;;6.38;3.92;;;;;;;;;;5093534;28;20035;-63
2021/12/31 13:17:28;;;;;;;7.70;4.40;;;;;;;;;;5093515;28;20390;-62
2021/12/31 13:20:07;;;;;;;10.43;4.50;;;;;;;;;;5093932;28;20043;-63
2021/12/31 13:22:36;;;;;;;8.25;4.50;;;;;;;;;;5085219;28;20060;-63
2021/12/31 13:25:03;;;;;;;11.32;3.92;;;;;;;;;;5093345;28;20048;-60
2021/12/31 13:27:30;;;;;;;10.38;4.35;;;;;;;;;;5093422;28;20534;-61
2021/12/31 13:30:11;;;;;;;8.65;4.10;;;;;;;;;;5093523;28;20032;-62
2021/12/31 13:32:42;;;;;;;11.55;4.65;;;;;;;;;;5091928;28;20414;-64
2021/12/31 13:35:12;;;;;;;17.55;4.28;;;;;;;;;;5093211;28;20081;-62
2021/12/31 13:37:39;;;;;;;11.05;4.30;;;;;;;;;;5093440;28;20089;-63
2021/12/31 13:40:15;;;;;;;12.70;3.90;;;;;;;;;;5093025;28;20036;-60
2021/12/31 13:42:43;;;;;;;7.85;3.63;;;;;;;;;;5092974;28;20051;-63
2021/12/31 13:45:19;;;;;;;11.77;4.60;;;;;;;;;;5093010;28;20043;-65
2021/12/31 13:47:45;;;;;;;8.60;3.88;;;;;;;;;;5093286;28;20504;-64
2021/12/31 13:50:11;;;;;;;9.93;3.55;;;;;;;;;;5092891;28;20395;-63
2021/12/31 13:52:44;;;;;;;10.10;3.58;;;;;;;;;;5092958;28;20036;-62
2021/12/31 13:55:26;;;;;;;9.18;3.65;;;;;;;;;;5092608;28;20036;-61
2021/12/31 13:58:02;;;;;;;9.48;3.25;;;;;;;;;;5093052;28;20075;-61
2021/12/31 14:00:29;;;;;;;10.13;3.72;;;;;;;;;;5092653;28;20031;-63
2021/12/31 14:02:55;;;;;;;16.55;4.00;;;;;;;;;;5092899;28;20047;-66
2021/12/31 14:05:24;;;;;;;14.10;4.15;;;11.70;99.90;;;;;;5092458;28;20105;-61
2021/12/31 14:08:00;;;;;;;15.32;4.28;;;;;;;;;;5092987;28;20079;-63
2021/12/31 14:10:27;;;;;;;11.05;3.80;;;;;;;;;;5092783;28;20044;-63
2021/12/31 14:13:03;;;;;;;14.55;4.07;;;;;;;;;;5092734;28;20068;-62
2021/12/31 14:15:32;;;;;;;12.50;4.32;;;;;;;;;;5092523;28;20030;-62
2021/12/31 14:17:59;;;;;;;15.95;4.30;;;;;;;;;;5092543;28;20565;-61
2021/12/31 14:20:25;;;;;;;13.10;3.90;;;;;;;;;;5092147;28;20055;-63
2021/12/31 14:22:52;;;;;;;17.63;3.80;;;;;;;;;;5092210;28;20105;-63
2021/12/31 14:25:20;;;;;;;12.80;4.45;;;;;;;;;;5092085;28;20040;-64
2021/12/31 14:27:46;;;;;;;8.82;2.95;;;;;;;;;;5085417;28;20040;-62
2021/12/31 14:30:12;;;;;;;9.93;3.25;;;;;;;;;;5092111;28;20040;-64
2021/12/31 14:32:39;;;;;;;13.57;3.92;;;;;;;;;;5091981;28;20043;-61
2021/12/31 14:35:07;;;;;;;11.45;3.30;;;;;;;;;;5092362;28;20031;-65
2021/12/31 14:37:33;;;;;;;9.15;3.63;;;;;;;;;;5090814;28;20530;-64
2021/12/31 14:40:01;;;;;;;10.68;3.83;;;;;;;;;;5092659;28;20371;-65
2021/12/31 14:42:29;;;;;;;11.15;3.67;;;;;;;;;;5091794;28;20071;-63